Flight Track Log - Related Links

Times and Time Zones

All times are in EDT time to prevent confusion due to time zone crossing. See the ASA2 flight status page for this flight to view local times or setup timezone preferences in your user account.

Time Position Orientation Groundspeed Altitude Reporting Facility
EDT Latitude Longitude Course Direction KTS MPH feet Rate Location/Type
Mon 05:12:21 PM 47.4700 -122.3075 North 181 208 1,500  Level Seattle Center
Mon 05:12:58 PM 47.5011 -122.3069 North 186 214 2,500 2,046 Climbing Seattle Center
Mon 05:15:14 PM 47.6122 -122.2172 29° Northeast 266 306 7,400 1,858 Climbing Seattle Center
Mon 05:16:15 PM 47.5911 -122.1111 106° East 272 313 8,600 1,426 Climbing Seattle Center
Mon 05:17:16 PM 47.5486 -122.0103 122° Southeast 269 310 10,300 1,623 Climbing Seattle Center
Mon 05:18:17 PM 47.5056 -121.9036 121° Southeast 308 354 11,900 1,869 Climbing Seattle Center
Mon 05:19:18 PM 47.4931 -121.7717 98° East 337 388 14,100 2,049 Climbing Seattle Center
Mon 05:20:20 PM 47.4964 -121.6231 88° East 364 419 16,100 1,854 Climbing Seattle Center
Mon 05:21:21 PM 47.4994 -121.4878 88° East 372 428 17,900 1,967 Climbing Seattle Center
Mon 05:22:22 PM 47.5011 -121.2992 89° East 383 441 20,100 1,967 Climbing Seattle Center
Mon 05:23:23 PM 47.5033 -121.1347 89° East 400 460 21,900 1,721 Climbing Seattle Center
Mon 05:24:24 PM 47.5064 -120.9636 88° East 416 479 23,600 1,623 Climbing Seattle Center
Mon 05:25:25 PM 47.5089 -120.7858 89° East 424 488 25,200 1,415 Climbing Seattle Center
Mon 05:26:27 PM 47.5114 -120.6061 89° East 436 502 26,500 1,366 Climbing Seattle Center
Mon 05:27:28 PM 47.5122 -120.4231 90° East 444 511 28,000 1,377 Climbing Seattle Center
Mon 05:28:29 PM 47.5131 -120.2375 90° East 451 519 29,300 1,131 Climbing Seattle Center
Mon 05:29:30 PM 47.5164 -120.0475 88° East 461 531 30,300 984 Climbing Seattle Center
Mon 05:30:31 PM 47.5183 -119.8544 89° East 469 540 31,300 934 Climbing Seattle Center
Mon 05:31:32 PM 47.5153 -119.6592 91° East 476 548 32,200 934 Climbing Seattle Center
Mon 05:32:33 PM 47.5119 -119.4619 91° East 480 552 33,200 927 Climbing Seattle Center
Mon 05:33:35 PM 47.5081 -119.2250 91° East 482 555 34,100 587 Climbing Seattle Center
Mon 05:35:37 PM 47.4997 -118.8178 92° East 501 577 35,000 295 Climbing Seattle Center
Mon 05:36:38 PM 47.4958 -118.6128 92° East 500 575 35,000  Level Seattle Center
Mon 05:37:39 PM 47.4897 -118.4092 92° East 497 572 35,000  Level Seattle Center
Mon 05:38:40 PM 47.4850 -118.2064 92° East 495 570 35,000  Level Seattle Center
Mon 05:39:41 PM 47.4806 -118.0064 92° East 490 564 35,000  Level Seattle Center
Mon 05:40:42 PM 47.4747 -117.8047 92° East 491 565 35,000  Level Seattle Center
Mon 05:41:44 PM 47.4689 -117.6044 92° East 491 565 35,000  Level Seattle Center
Mon 05:42:45 PM 47.4622 -117.4050 93° East 490 564 35,000  Level Seattle Center
Mon 05:43:46 PM 47.4531 -117.1661 93° East 494 568 35,000  Level Seattle Center
Mon 05:44:47 PM 47.4461 -116.9656 93° East 504 580 35,000  Level Seattle Center
Mon 05:45:48 PM 47.4411 -116.7689 92° East 491 565 35,000  Level Seattle Center
Mon 05:46:50 PM 47.4336 -116.5633 93° East 494 568 35,000  Level Seattle Center
Mon 05:47:51 PM 47.4253 -116.3694 94° East 491 565 35,000  Level Seattle Center
Mon 05:48:52 PM 47.4161 -116.1683 94° East 491 565 35,000  Level Seattle Center
Mon 05:49:53 PM 47.4058 -115.9275 94° East 493 567 35,000  Level Seattle Center
Mon 05:50:54 PM 47.3969 -115.7283 94° East 489 563 35,000  Level Seattle Center
Mon 05:51:55 PM 47.3881 -115.5483 94° East 490 564 35,000  Level Seattle Center
Mon 05:52:57 PM 47.3783 -115.3506 94° East 485 558 35,000  Level Seattle Center
Mon 05:53:58 PM 47.3681 -115.1508 94° East 490 564 35,000  Level Seattle Center
Mon 05:54:59 PM 47.3547 -114.9122 95° East 490 564 35,000  Level Seattle Center
Mon 05:56:00 PM 47.3439 -114.7136 95° East 490 564 35,000  Level Seattle Center
Mon 05:57:01 PM 47.3322 -114.5136 95° East 493 567 35,000  Level Seattle Center
Mon 05:58:29 PM 47.3172 -114.2394 95° East 487 560 35,000  Level Salt Lake Center
Mon 05:59:31 PM 47.3053 -114.0414 95° East 488 562 35,000  Level Salt Lake Center
Mon 06:00:32 PM 47.2903 -113.8083 95° East 483 556 35,000  Level Salt Lake Center
Mon 06:02:36 PM 47.2644 -113.4208 95° East 478 550 35,000  Level Salt Lake Center
Mon 06:03:37 PM 47.2508 -113.2278 96° East 476 548 35,000  Level Salt Lake Center
Mon 06:04:39 PM 47.2372 -113.0319 96° East 483 556 35,000  Level Salt Lake Center
Mon 06:05:41 PM 47.2219 -112.8136 96° East 484 557 35,000  Level Salt Lake Center
Mon 06:06:42 PM 47.2061 -112.6169 97° East 486 559 35,000  Level Salt Lake Center
Mon 06:07:44 PM 47.1917 -112.4197 96° East 487 560 35,000 242 Level Salt Lake Center
Mon 06:08:46 PM 47.1764 -112.2244 96° East 486 559 35,500 780 Climbing Salt Lake Center
Mon 06:09:47 PM 47.1614 -112.0322 96° East 480 552 36,600 732 Climbing Salt Lake Center
Mon 06:10:49 PM 47.1442 -111.8053 96° East 471 542 37,000 194 Climbing Salt Lake Center
Mon 06:11:51 PM 47.1275 -111.6128 97° East 476 548 37,000  Level Salt Lake Center
Mon 06:12:52 PM 47.1122 -111.4200 97° East 480 552 37,000  Level Salt Lake Center
Mon 06:13:54 PM 47.0958 -111.2275 97° East 480 552 37,000  Level Salt Lake Center
Mon 06:14:56 PM 47.0775 -111.0342 98° East 483 556 37,000  Level Salt Lake Center
Mon 06:15:57 PM 47.0608 -110.8414 97° East 482 555 37,000  Level Salt Lake Center
Mon 06:16:59 PM 47.0397 -110.6131 98° East 476 548 37,000  Level Salt Lake Center
Mon 06:18:01 PM 47.0214 -110.4250 98° East 469 540 37,000  Level Salt Lake Center
Mon 06:19:02 PM 47.0036 -110.2364 98° East 470 541 37,000  Level Salt Lake Center
Mon 06:20:04 PM 46.9856 -110.0461 98° East 473 544 37,000  Level Salt Lake Center
Mon 06:21:05 PM 46.9656 -109.8550 99° East 477 549 37,000  Level Salt Lake Center
Mon 06:22:07 PM 46.9475 -109.6628 98° East 478 550 37,000  Level Salt Lake Center
Mon 06:23:09 PM 46.9289 -109.4700 98° East 480 552 37,000  Level Salt Lake Center
Mon 06:24:10 PM 46.9022 -109.2394 100° East 480 552 37,000  Level Salt Lake Center
Mon 06:25:12 PM 46.8819 -109.0456 99° East 485 558 37,000  Level Salt Lake Center
Mon 06:26:13 PM 46.8583 -108.8414 100° East 484 557 37,000  Level Salt Lake Center
Mon 06:27:15 PM 46.8378 -108.6494 99° East 482 555 37,000  Level Salt Lake Center
Mon 06:28:16 PM 46.8186 -108.4594 98° East 477 549 37,000  Level Salt Lake Center
Mon 06:29:18 PM 46.7950 -108.2669 100° East 482 555 37,000  Level Salt Lake Center
Mon 06:30:20 PM 46.7725 -108.0728 100° East 486 559 37,000  Level Salt Lake Center
Mon 06:32:23 PM 46.7278 -107.6822 99° East 492 566 37,000  Level Salt Lake Center
Mon 06:33:24 PM 46.7053 -107.4872 99° East 491 565 37,000  Level Salt Lake Center
Mon 06:34:26 PM 46.6758 -107.2522 100° East 493 567 37,000  Level Salt Lake Center
Mon 06:35:27 PM 46.6517 -107.0586 100° East 490 564 37,000  Level Salt Lake Center
Mon 06:36:29 PM 46.6281 -106.8647 100° East 489 563 37,000  Level Salt Lake Center
Mon 06:37:31 PM 46.5997 -106.6706 102° East 490 564 37,000  Level Salt Lake Center
Mon 06:38:32 PM 46.5747 -106.4764 101° East 491 565 37,000  Level Salt Lake Center
Mon 06:39:34 PM 46.5500 -106.2831 100° East 491 565 37,000  Level Salt Lake Center
Mon 06:40:35 PM 46.5242 -106.0922 101° East 488 562 37,000  Level Salt Lake Center
Mon 06:41:37 PM 46.4944 -105.8647 101° East 485 558 37,000  Level Salt Lake Center
Mon 06:42:38 PM 46.4681 -105.6753 101° East 483 556 37,000  Level Salt Lake Center
Mon 06:43:40 PM 46.4414 -105.4867 102° East 482 555 37,000  Level Salt Lake Center
Mon 06:44:41 PM 46.4167 -105.3008 101° East 479 551 37,000  Level Salt Lake Center
Mon 06:45:43 PM 46.3900 -105.1144 102° East 477 549 37,000  Level Salt Lake Center
Mon 06:46:45 PM 46.3628 -104.9281 102° East 476 548 37,000  Level Salt Lake Center
Mon 06:47:46 PM 46.3358 -104.7425 102° East 476 548 37,000  Level Salt Lake Center
Mon 06:48:48 PM 46.3022 -104.5175 102° East 477 549 37,000  Level Salt Lake Center
Mon 06:49:49 PM 46.2744 -104.3303 102° East 477 549 37,000  Level Salt Lake Center
Mon 06:50:51 PM 46.2467 -104.1422 102° East 479 551 37,000  Level Salt Lake Center
Mon 06:51:52 PM 46.2181 -103.9553 102° East 480 552 37,000  Level Salt Lake Center
Mon 06:52:54 PM 46.1894 -103.7678 102° East 480 552 37,000  Level Salt Lake Center
Mon 06:53:54 PM 46.1622 -103.5864 102° East 480 552 37,000  Level Minneapolis Center
Mon 06:54:56 PM 46.1325 -103.4028 103° East 475 547 37,000  Level Minneapolis Center
Mon 06:55:59 PM 46.0956 -103.1753 103° East 477 549 37,000  Level Salt Lake Center
Mon 06:57:00 PM 46.0664 -102.9914 103° East 475 547 37,000  Level Salt Lake Center
Mon 06:58:03 PM 46.0381 -102.8111 103° East 476 548 37,000  Level Minneapolis Center
Mon 06:59:05 PM 46.0053 -102.6308 105° East 477 549 37,000  Level Minneapolis Center
Mon 07:00:07 PM 45.9681 -102.4475 106° East 477 549 37,000  Level Minneapolis Center
Mon 07:01:09 PM 45.9311 -102.2236 103° East 479 551 37,000  Level Minneapolis Center
Mon 07:02:11 PM 45.8994 -102.0381 104° East 479 551 37,000  Level Minneapolis Center
Mon 07:03:13 PM 45.8686 -101.8533 103° East 478 550 37,000  Level Minneapolis Center
Mon 07:04:15 PM 45.8375 -101.6711 104° East 475 547 37,000  Level Minneapolis Center
Mon 07:05:17 PM 45.8047 -101.4886 104° East 474 545 37,000  Level Minneapolis Center
Mon 07:06:19 PM 45.7728 -101.3067 104° East 472 543 37,000  Level Minneapolis Center
Mon 07:07:21 PM 45.7433 -101.1231 103° East 472 543 37,000  Level Minneapolis Center
Mon 07:08:23 PM 45.7039 -100.9025 104° East 475 547 37,000  Level Minneapolis Center
Mon 07:09:25 PM 45.6700 -100.7231 105° East 471 542 37,000  Level Minneapolis Center
Mon 07:10:27 PM 45.6358 -100.5417 105° East 471 542 37,000  Level Minneapolis Center
Mon 07:11:29 PM 45.6019 -100.3628 105° East 467 537 37,000  Level Minneapolis Center
Mon 07:12:31 PM 45.5681 -100.1833 105° East 466 536 37,000  Level Minneapolis Center
Mon 07:13:34 PM 45.5331 -100.0033 105° East 467 537 37,000  Level Minneapolis Center
Mon 07:14:36 PM 45.4986 -99.8242 105° East 466 536 37,000  Level Minneapolis Center
Mon 07:15:38 PM 45.4564 -99.6097 106° East 466 536 37,000  Level Minneapolis Center
Mon 07:16:40 PM 45.4219 -99.4322 105° East 464 534 37,000  Level Minneapolis Center
Mon 07:17:42 PM 45.3869 -99.2564 106° East 461 531 37,000  Level Minneapolis Center
Mon 07:18:44 PM 45.3514 -99.0833 106° East 457 526 37,000  Level Minneapolis Center
Mon 07:19:46 PM 45.3167 -98.9119 106° East 453 521 37,000  Level Minneapolis Center
Mon 07:20:48 PM 45.2814 -98.7400 106° East 453 521 37,000  Level Minneapolis Center
Mon 07:21:50 PM 45.2458 -98.5683 106° East 453 521 37,000  Level Minneapolis Center
Mon 07:22:52 PM 45.2044 -98.3622 106° East 453 521 37,000  Level Minneapolis Center
Mon 07:23:54 PM 45.1692 -98.1911 106° East 452 520 37,000  Level Minneapolis Center
Mon 07:24:56 PM 45.1331 -98.0211 107° East 452 520 37,000  Level Minneapolis Center
Mon 07:25:58 PM 45.0925 -97.8519 109° East 452 520 37,000  Level Minneapolis Center
Mon 07:27:00 PM 45.0556 -97.6814 107° East 452 520 37,000  Level Minneapolis Center
Mon 07:28:02 PM 45.0183 -97.5100 107° East 455 524 37,000  Level Minneapolis Center
Mon 07:29:05 PM 44.9728 -97.3064 107° East 454 522 37,000  Level Minneapolis Center
Mon 07:30:07 PM 44.9342 -97.1336 107° East 459 528 37,000  Level Minneapolis Center
Mon 07:31:09 PM 44.8978 -96.9644 107° East 454 522 37,000  Level Minneapolis Center
Mon 07:32:11 PM 44.8589 -96.7978 108° East 450 518 37,000  Level Minneapolis Center
Mon 07:33:13 PM 44.8211 -96.6300 108° East 449 517 37,000  Level Minneapolis Center
Mon 07:34:15 PM 44.7839 -96.4644 108° East 446 513 37,000  Level Minneapolis Center
Mon 07:35:17 PM 44.7456 -96.2983 108° East 445 512 37,000  Level Minneapolis Center
Mon 07:36:18 PM 44.6992 -96.0958 108° East 450 518 37,000  Level Minneapolis Center
Mon 07:37:20 PM 44.6597 -95.9292 108° East 449 517 37,000  Level Minneapolis Center
Mon 07:38:22 PM 44.6200 -95.7625 108° East 447 514 37,000  Level Minneapolis Center
Mon 07:39:24 PM 44.5800 -95.5947 108° East 452 520 37,000  Level Minneapolis Center
Mon 07:40:26 PM 44.5397 -95.4261 108° East 454 522 37,000  Level Minneapolis Center
Mon 07:41:28 PM 44.4986 -95.2564 109° East 458 527 37,000  Level Minneapolis Center
Mon 07:42:30 PM 44.4594 -95.0883 108° East 454 522 37,000  Level Minneapolis Center
Mon 07:43:32 PM 44.4397 -94.9183 99° East 444 511 37,000  Level Minneapolis Center
Mon 07:44:46 PM 44.4075 -94.6792 101° East 446 513 37,000  Level Minneapolis Center
Mon 07:45:48 PM 44.3850 -94.5256 102° East 444 511 37,000  Level Minneapolis Center
Mon 07:46:50 PM 44.3619 -94.3578 101° East 443 510 37,000  Level Minneapolis Center
Mon 07:47:51 PM 44.3331 -94.1603 101° East 437 503 37,000  Level Minneapolis Center
Mon 07:48:53 PM 44.3081 -93.9950 102° East 438 504 37,000  Level Minneapolis Center
Mon 07:49:55 PM 44.2833 -93.8303 102° East 439 505 37,000  Level Minneapolis Center
Mon 07:50:57 PM 44.2597 -93.6617 101° East 444 511 37,000  Level Minneapolis Center
Mon 07:51:59 PM 44.2344 -93.4950 102° East 444 511 37,000  Level Minneapolis Center
Mon 07:53:00 PM 44.2083 -93.3278 102° East 447 514 37,000  Level Minneapolis Center
Mon 07:54:02 PM 44.1783 -93.1247 102° East 450 518 37,000  Level Minneapolis Center
Mon 07:55:04 PM 44.1522 -92.9542 102° East 454 522 37,000  Level Minneapolis Center
Mon 07:56:06 PM 44.1258 -92.7856 102° East 450 518 37,000  Level Minneapolis Center
Mon 07:57:08 PM 44.0994 -92.6147 102° East 454 522 37,000  Level Minneapolis Center
Mon 07:58:09 PM 44.0719 -92.4464 103° East 451 519 37,000  Level Minneapolis Center
Mon 07:59:24 PM 44.0342 -92.2081 102° East 453 521 37,000  Level Minneapolis Center
Mon 08:00:26 PM 44.0053 -92.0383 103° East 454 522 37,000  Level Minneapolis Center
Mon 08:01:27 PM 43.9778 -91.8667 102° East 458 527 37,000  Level Minneapolis Center
Mon 08:02:29 PM 43.9497 -91.6956 103° East 458 527 37,000  Level Minneapolis Center
Mon 08:03:31 PM 43.9194 -91.5106 103° East 459 528 37,000  Level Minneapolis Center
Mon 08:04:33 PM 43.8869 -91.3417 105° East 459 528 37,000  Level Minneapolis Center
Mon 08:05:35 PM 43.8522 -91.1731 106° East 457 526 37,000  Level Minneapolis Center
Mon 08:06:36 PM 43.8178 -91.0025 106° East 461 531 37,000  Level Minneapolis Center
Mon 08:07:38 PM 43.7750 -90.7986 106° East 462 532 37,000  Level Minneapolis Center
Mon 08:08:40 PM 43.7389 -90.6278 106° East 465 535 37,000  Level Minneapolis Center
Mon 08:09:21 PM 43.7175 -90.5264 106° East 464 534 37,000  Level Chicago Center
Mon 08:10:23 PM 43.6806 -90.3578 107° East 463 533 37,000  Level Chicago Center
Mon 08:10:56 PM 43.6664 -90.2908 106° East 460 529 37,000  Level Minneapolis Center
Mon 08:11:58 PM 43.6183 -90.0703 107° East 460 529 37,000  Level Minneapolis Center
Mon 08:13:00 PM 43.5819 -89.9028 107° East 457 526 37,000  Level Minneapolis Center
Mon 08:14:02 PM 43.5436 -89.7322 107° East 462 532 37,000  Level Minneapolis Center
Mon 08:15:04 PM 43.4956 -89.5689 112° Southeast 461 531 37,000  Level Minneapolis Center
Mon 08:16:06 PM 43.4397 -89.3772 112° Southeast 462 532 37,000  Level Minneapolis Center
Mon 08:17:07 PM 43.3925 -89.2144 112° Southeast 460 529 37,000  Level Minneapolis Center
Mon 08:18:21 PM 43.3450 -89.0544 112° Southeast 457 526 37,000  Level Minneapolis Center
Mon 08:19:24 PM 43.2908 -88.8692 112° Southeast 452 520 37,000  Level Minneapolis Center
Mon 08:20:25 PM 43.2361 -88.6869 112° Southeast 449 517 37,000  Level Minneapolis Center
Mon 08:21:27 PM 43.1892 -88.5306 112° Southeast 448 516 37,000  Level Minneapolis Center
Mon 08:22:29 PM 43.1425 -88.3725 112° Southeast 452 520 37,000  Level Minneapolis Center
Mon 08:23:31 PM 43.1081 -88.2075 106° East 456 525 37,000  Level Minneapolis Center
Mon 08:24:33 PM 43.0900 -88.0342 98° East 462 532 37,000  Level Minneapolis Center
Mon 08:25:51 PM 43.0647 -87.8044 98° East 461 531 37,000  Level Chicago Center
Mon 08:26:53 PM 43.0461 -87.6300 98° East 463 533 37,000  Level Chicago Center
Mon 08:27:55 PM 43.0225 -87.4264 99° East 465 535 37,000  Level Chicago Center
Mon 08:28:57 PM 43.0033 -87.2650 99° East 468 539 37,000  Level Chicago Center
Mon 08:29:59 PM 42.9853 -87.0897 98° East 468 539 37,000  Level Chicago Center
Mon 08:31:01 PM 42.9636 -86.9167 100° East 465 535 37,000  Level Chicago Center
Mon 08:32:03 PM 42.9392 -86.7097 99° East 463 533 37,000  Level Chicago Center
Mon 08:33:05 PM 42.9181 -86.5369 99° East 465 535 37,000  Level Chicago Center
Mon 08:34:07 PM 42.8975 -86.3669 99° East 459 528 37,000  Level Chicago Center
Mon 08:35:09 PM 42.8753 -86.1989 100° East 457 526 37,000  Level Chicago Center
Mon 08:36:11 PM 42.8542 -86.0294 100° East 463 533 37,000  Level Chicago Center
Mon 08:37:13 PM 42.8297 -85.8267 99° East 461 531 37,000  Level Chicago Center
Mon 08:38:15 PM 42.8081 -85.6575 100° East 460 529 37,000  Level Chicago Center
Mon 08:39:17 PM 42.7831 -85.4892 101° East 458 527 37,000  Level Chicago Center
Mon 08:40:19 PM 42.7319 -85.3372 115° Southeast 444 511 37,000  Level Chicago Center
Mon 08:41:20 PM 42.6781 -85.1850 116° Southeast 445 512 37,000  Level Chicago Center
Mon 08:42:22 PM 42.6144 -85.0036 115° Southeast 444 511 37,000  Level Chicago Center
Mon 08:43:24 PM 42.5603 -84.8519 116° Southeast 446 513 37,000  Level Chicago Center
Mon 08:44:26 PM 42.5053 -84.7008 116° Southeast 447 514 37,000  Level Chicago Center
Mon 08:45:28 PM 42.4442 -84.5578 120° Southeast 435 501 37,000  Level Chicago Center
Mon 08:46:30 PM 42.3592 -84.4494 137° Southeast 420 483 37,000  Level Chicago Center
Mon 08:47:32 PM 42.2769 -84.3361 134° Southeast 420 483 37,000  Level Chicago Center
Mon 08:48:34 PM 42.1881 -84.1883 129° Southeast 424 488 37,000  Level Chicago Center
Mon 08:49:36 PM 42.1142 -84.0694 130° Southeast 417 480 37,000  Level Chicago Center
Mon 08:50:52 PM 42.0117 -83.9172 132° Southeast 413 475 37,000  Level Cleveland Center
Mon 08:51:52 PM 41.9381 -83.7933 129° Southeast 420 483 37,000  Level Cleveland Center
Mon 08:52:52 PM 41.8661 -83.6783 130° Southeast 415 478 37,000  Level Cleveland Center
Mon 08:53:52 PM 41.8019 -83.5750 130° Southeast 409 471 37,000  Level Cleveland Center
Mon 08:54:52 PM 41.7319 -83.4603 129° Southeast 409 471 37,000  Level Cleveland Center
Mon 08:55:52 PM 41.6639 -83.3489 129° Southeast 404 465 37,000  Level Cleveland Center
Mon 08:56:52 PM 41.5936 -83.2403 131° Southeast 393 452 37,000  Level Cleveland Center
Mon 08:57:52 PM 41.5169 -83.1233 131° Southeast 387 445 37,000  Level Cleveland Center
Mon 08:58:52 PM 41.4239 -83.0839 162° South 358 412 37,000  Level Cleveland Center
Mon 08:59:52 PM 41.3331 -83.0469 88° East 346 398 37,000  Level Cleveland Center
Mon 09:00:52 PM 41.2400 -83.0131 165° South 346 398 37,000  Level Cleveland Center
Mon 09:01:52 PM 41.1469 -82.9739 162° South 346 398 37,000  Level Cleveland Center
Mon 09:02:52 PM 41.0561 -82.9347 162° South 346 398 37,000  Level Cleveland Center
Mon 09:03:52 PM 40.9697 -82.8739 152° Southeast 351 404 37,000  Level Cleveland Center
Mon 09:05:55 PM 40.8414 -82.6242 124° Southeast 409 471 37,000  Level Indianapolis Center
Mon 09:06:56 PM 40.7761 -82.5003 125° Southeast 409 471 37,000  Level Indianapolis Center
Mon 09:07:58 PM 40.7097 -82.3764 125° Southeast 411 473 37,000  Level Indianapolis Center
Mon 09:08:59 PM 40.6439 -82.2522 125° Southeast 413 475 37,000  Level Indianapolis Center
Mon 09:10:00 PM 40.5764 -82.1258 125° Southeast 418 481 37,000  Level Indianapolis Center
Mon 09:11:01 PM 40.5083 -82.0003 125° Southeast 420 483 37,000  Level Indianapolis Center
Mon 09:12:02 PM 40.4406 -81.8753 125° Southeast 418 481 37,000  Level Indianapolis Center
Mon 09:13:03 PM 40.3728 -81.7506 125° Southeast 417 480 37,000  Level Indianapolis Center
Mon 09:14:04 PM 40.3047 -81.6242 125° Southeast 421 484 37,000  Level Indianapolis Center
Mon 09:15:06 PM 40.2367 -81.5006 126° Southeast 416 479 37,000  Level Indianapolis Center
Mon 09:16:07 PM 40.1692 -81.3772 126° Southeast 415 478 37,000  Level Indianapolis Center
Mon 09:17:08 PM 40.1011 -81.2531 126° Southeast 416 479 37,000 -49 Level Indianapolis Center
Mon 09:18:09 PM 40.0214 -81.1103 126° Southeast 413 475 36,900 -639 Descending Indianapolis Center
Mon 09:19:10 PM 39.9525 -80.9872 126° Southeast 416 479 35,700 -1,180 Descending Indianapolis Center
Mon 09:20:11 PM 39.8881 -80.8706 126° Southeast 417 480 34,500 -1,230 Descending Indianapolis Center
Mon 09:21:12 PM 39.8183 -80.7469 126° Southeast 422 486 33,200 -1,230 Descending Indianapolis Center
Mon 09:22:13 PM 39.7481 -80.6208 126° Southeast 428 493 32,000 -1,230 Descending Indianapolis Center
Mon 09:23:14 PM 39.6769 -80.4964 127° Southeast 428 493 30,700 -1,354 Descending Indianapolis Center
Mon 09:25:28 PM 39.5475 -80.1847 118° Southeast 419 482 27,600 -1,057 Descending Cleveland Center
Mon 09:26:44 PM 39.4950 -80.0156 112° Southeast 419 482 27,000 -265 Descending Washington Center
Mon 09:27:44 PM 39.4500 -79.8731 112° Southeast 419 482 27,000  Level Washington Center
Mon 09:28:45 PM 39.4050 -79.7308 112° Southeast 419 482 27,000  Level Washington Center
Mon 09:29:45 PM 39.3619 -79.5886 111° Southeast 419 482 27,000  Level Washington Center
Mon 09:30:44 PM 39.3167 -79.4439 112° Southeast 424 488 27,000  Level Washington Center
Mon 09:31:44 PM 39.2711 -79.2994 112° Southeast 424 488 27,000  Level Washington Center
Mon 09:32:45 PM 39.2361 -79.1503 107° East 424 488 27,000 -595 Level Washington Center
Mon 09:33:45 PM 39.2239 -78.9917 96° East 424 488 25,800 -1,678 Descending Washington Center
Mon 09:34:43 PM 39.2114 -78.8411 96° East 429 494 23,700 -2,067 Descending Washington Center
Mon 09:35:44 PM 39.1967 -78.6931 97° East 424 488 21,700 -1,967 Descending Washington Center
Mon 09:36:45 PM 39.1814 -78.5506 98° East 413 475 19,700 -2,017 Descending Washington Center
Mon 09:37:43 PM 39.1681 -78.4133 97° East 400 460 17,700 -1,361 Descending Washington Center
Mon 09:38:44 PM 39.1439 -78.2839 103° East 379 436 17,000 -689 Descending Washington Center
Mon 09:39:45 PM 39.1133 -78.1597 108° East 367 422 16,300 -1,289 Descending Washington Center
Mon 09:40:45 PM 39.0803 -78.0383 109° East 362 417 14,400 -1,424 Descending Washington Center
Mon 09:41:43 PM 39.0533 -77.9306 108° East 344 396 13,500 -1,169 Descending Washington Center
Mon 09:42:43 PM 39.0300 -77.8361 108° East 315 362 12,100 -1,377 Descending Washington Center
Mon 09:43:45 PM 39.0008 -77.7258 109° East 298 343 10,700 -1,150 Descending Washington Center
Mon 09:44:43 PM 38.9794 -77.6369 107° East 287 330 9,800 -1,220 Descending Washington Center
Mon 09:45:43 PM 38.9497 -77.5428 112° Southeast 269 310 8,300 -1,421 Descending Washington Center
Mon 09:46:37 PM 38.9667 -77.4667 74° East 267 307 7,100 -1,368 Descending Potomac TRACON
Mon 09:47:37 PM 39.0000 -77.3833 63° Northeast 267 307 5,700 -1,158 Descending Potomac TRACON
Mon 09:48:31 PM 39.0333 -77.3167 57° Northeast 251 289 4,900 -939 Descending Potomac TRACON
Mon 09:49:32 PM 39.0500 -77.2333 76° East 224 258 3,900 -942 Descending Potomac TRACON
Mon 09:50:32 PM 39.0167 -77.2000 142° Southeast 183 211 3,000 -450 Descending Potomac TRACON
Mon 09:51:32 PM 38.9833 -77.1667 142° Southeast 176 203 3,000 -446 Level Potomac TRACON
Mon 09:52:33 PM 38.9500 -77.1167 131° Southeast 154 177 2,100 -835 Descending Potomac TRACON
Mon 09:53:27 PM 38.9167 -77.1000 159° South 139 160 1,400 -789 Descending Potomac TRACON
Mon 09:54:27 PM 38.8833 -77.0500 131° Southeast 140 161 600 -800 Descending Potomac TRACON
Mon 09:56:00 PM 38.8519 -77.0377 180° South  Level Estimated
Mon 10:03:00 PM 38.8500 -77.0333 North  Level FlightAware Approximate
Mon 10:04:00 PM 38.8519 -77.0377 North  Level Estimated

Login

Don't have an account? Register now (free) for customized features, flight alerts, and more!